createdAt,value
2023-02-25T00:00:32.097Z,4.00
2023-02-25T00:03:20.210Z,4.00
2023-02-25T00:06:09.484Z,4.00
2023-02-25T00:08:57.576Z,4.00
2023-02-25T00:11:46.983Z,4.00
2023-02-25T00:14:35.120Z,4.10
2023-02-25T00:17:23.297Z,4.10
2023-02-25T00:20:13.385Z,4.10
2023-02-25T00:23:01.434Z,4.00
2023-02-25T00:25:49.538Z,4.00
2023-02-25T00:28:40.012Z,4.00
2023-02-25T00:31:28.171Z,4.10
2023-02-25T00:34:17.814Z,4.10
2023-02-25T00:37:06.015Z,4.10
2023-02-25T00:39:54.149Z,4.00
2023-02-25T00:42:42.701Z,4.00
2023-02-25T00:45:32.547Z,4.00
2023-02-25T00:48:22.326Z,4.00
2023-02-25T00:51:12.255Z,4.00
2023-02-25T00:54:00.340Z,4.00
2023-02-25T00:56:48.461Z,4.00
2023-02-25T00:59:36.656Z,4.00
2023-02-25T01:02:26.093Z,4.10
2023-02-25T01:05:14.723Z,4.00
2023-02-25T01:08:02.901Z,4.00
2023-02-25T01:10:50.992Z,4.00
2023-02-25T01:13:39.137Z,4.00
2023-02-25T01:16:28.452Z,4.10
2023-02-25T01:19:19.781Z,4.00
2023-02-25T01:22:08.122Z,4.10
2023-02-25T01:24:56.251Z,4.10
2023-02-25T01:27:44.501Z,4.10
2023-02-25T01:30:32.582Z,4.10
2023-02-25T01:33:20.628Z,4.10
2023-02-25T01:36:10.232Z,4.10
2023-02-25T01:38:58.301Z,4.10
2023-02-25T01:41:48.804Z,4.10
2023-02-25T01:44:38.829Z,4.00
2023-02-25T01:47:28.868Z,4.10
2023-02-25T01:50:17.040Z,4.10
2023-02-25T01:53:07.113Z,4.10
2023-02-25T01:55:55.871Z,4.10
2023-02-25T01:58:44.201Z,4.10
2023-02-25T02:01:33.846Z,4.10
2023-02-25T02:04:22.648Z,4.00
2023-02-25T02:07:10.865Z,4.10
2023-02-25T02:10:01.917Z,4.00
2023-02-25T02:12:50.070Z,4.00
2023-02-25T02:15:41.107Z,4.00
2023-02-25T02:18:30.928Z,4.00
2023-02-25T02:21:23.036Z,4.00
2023-02-25T02:24:23.957Z,4.00
2023-02-25T02:27:15.421Z,4.00
2023-02-25T02:30:28.454Z,4.00
2023-02-25T02:33:24.927Z,4.00
2023-02-25T02:36:19.602Z,3.90
2023-02-25T02:39:14.564Z,3.80
2023-02-25T02:42:08.168Z,3.60
2023-02-25T02:44:59.517Z,3.50
2023-02-25T02:47:50.459Z,3.50
2023-02-25T02:50:41.949Z,3.40
2023-02-25T02:53:32.628Z,3.40
2023-02-25T02:56:22.716Z,3.40
2023-02-25T02:59:13.525Z,3.30
2023-02-25T03:02:06.632Z,3.20
2023-02-25T03:04:56.088Z,3.20
2023-02-25T03:07:48.139Z,3.10
2023-02-25T03:10:36.303Z,3.10
2023-02-25T03:13:24.423Z,3.10
2023-02-25T03:16:15.197Z,3.10
2023-02-25T03:19:06.746Z,3.10
2023-02-25T03:21:57.102Z,3.10
2023-02-25T03:24:49.501Z,3.20
2023-02-25T03:27:55.901Z,3.20
2023-02-25T03:30:46.062Z,3.20
2023-02-25T03:33:37.281Z,3.20
2023-02-25T03:36:29.135Z,3.30
2023-02-25T03:39:19.577Z,3.30
2023-02-25T03:42:12.635Z,3.40
2023-02-25T03:45:02.405Z,3.40
2023-02-25T03:47:50.505Z,3.40
2023-02-25T03:50:41.627Z,3.40
2023-02-25T03:53:30.509Z,3.50
2023-02-25T03:56:18.672Z,3.50
2023-02-25T03:59:08.105Z,3.50
2023-02-25T04:01:57.088Z,3.50
2023-02-25T04:04:45.190Z,3.50
2023-02-25T04:07:33.273Z,3.50
2023-02-25T04:10:21.845Z,3.50
2023-02-25T04:13:10.000Z,3.50
2023-02-25T04:15:59.701Z,3.50
2023-02-25T04:18:47.807Z,3.50
2023-02-25T04:21:36.845Z,3.50
2023-02-25T04:24:24.928Z,3.50
2023-02-25T04:27:15.601Z,3.50
2023-02-25T04:30:03.878Z,3.50
2023-02-25T04:32:53.394Z,3.50
2023-02-25T04:35:41.484Z,3.50
2023-02-25T04:38:29.585Z,3.50
2023-02-25T04:41:17.673Z,3.50
2023-02-25T04:44:06.723Z,3.60
2023-02-25T04:46:54.920Z,3.50
2023-02-25T04:49:45.692Z,3.50
2023-02-25T04:52:33.787Z,3.60
2023-02-25T04:55:21.897Z,3.60
2023-02-25T04:58:09.980Z,3.50
2023-02-25T05:00:59.836Z,3.60
2023-02-25T05:03:47.940Z,3.60
2023-02-25T05:06:37.444Z,3.60
2023-02-25T05:09:25.594Z,3.60
2023-02-25T05:12:13.659Z,3.60
2023-02-25T05:15:04.019Z,3.60
2023-02-25T05:17:52.376Z,3.60
2023-02-25T05:20:41.020Z,3.50
2023-02-25T05:23:30.504Z,3.60
2023-02-25T05:26:21.836Z,3.50
2023-02-25T05:29:10.391Z,3.50
2023-02-25T05:31:58.629Z,3.50
2023-02-25T05:34:46.778Z,3.50
2023-02-25T05:37:34.844Z,3.50
2023-02-25T05:40:24.257Z,3.40
2023-02-25T05:43:12.290Z,3.50
2023-02-25T05:46:03.422Z,3.50
2023-02-25T05:48:51.543Z,3.50
2023-02-25T05:51:39.633Z,3.50
2023-02-25T05:54:27.693Z,3.50
2023-02-25T05:57:17.147Z,3.40
2023-02-25T06:00:09.331Z,3.40
2023-02-25T06:02:57.451Z,3.50
2023-02-25T06:05:47.842Z,3.40
2023-02-25T06:08:36.165Z,3.40
2023-02-25T06:11:24.947Z,3.40
2023-02-25T06:14:14.379Z,3.40
2023-02-25T06:17:02.834Z,3.40
2023-02-25T06:19:51.333Z,3.50
2023-02-25T06:22:39.476Z,3.40
2023-02-25T06:25:29.925Z,3.40
2023-02-25T06:28:18.006Z,3.40
2023-02-25T06:31:09.914Z,3.30
2023-02-25T06:33:58.054Z,3.30
2023-02-25T06:36:46.533Z,3.40
2023-02-25T06:39:34.925Z,3.30
2023-02-25T06:42:23.293Z,2.90
2023-02-25T06:45:11.551Z,2.50
2023-02-25T06:48:01.043Z,2.20
2023-02-25T06:50:49.172Z,2.20
2023-02-25T06:53:37.284Z,2.20
2023-02-25T06:56:26.635Z,2.20
2023-02-25T06:59:14.881Z,2.20
2023-02-25T07:02:03.099Z,2.30
2023-02-25T07:04:54.001Z,2.30
2023-02-25T07:07:42.085Z,2.40
2023-02-25T07:10:30.158Z,2.40
2023-02-25T07:13:18.226Z,2.50
2023-02-25T07:16:06.687Z,2.40
2023-02-25T07:18:54.814Z,2.50
2023-02-25T07:21:44.875Z,2.60
2023-02-25T07:24:33.127Z,2.60
2023-02-25T07:27:21.246Z,2.60
2023-02-25T07:30:10.605Z,2.60
2023-02-25T07:32:58.749Z,2.70
2023-02-25T07:35:46.886Z,2.70
2023-02-25T07:38:37.314Z,2.80
2023-02-25T07:41:25.631Z,2.80
2023-02-25T07:44:13.793Z,2.80
2023-02-25T07:47:01.875Z,2.80
2023-02-25T07:49:49.934Z,2.90
2023-02-25T07:52:38.022Z,2.90
2023-02-25T07:55:27.517Z,3.00
2023-02-25T07:58:15.602Z,3.00
2023-02-25T08:01:08.071Z,3.00
2023-02-25T08:03:56.971Z,2.90
2023-02-25T08:06:46.277Z,2.90
2023-02-25T08:09:34.377Z,2.90
2023-02-25T08:12:23.904Z,2.80
2023-02-25T08:15:12.419Z,2.80
2023-02-25T08:18:00.575Z,2.80
2023-02-25T08:20:48.706Z,2.80
2023-02-25T08:23:36.789Z,2.80
2023-02-25T08:26:27.176Z,2.80
2023-02-25T08:29:16.618Z,2.80
2023-02-25T08:32:06.968Z,2.80
2023-02-25T08:34:56.584Z,2.80
2023-02-25T08:37:45.304Z,2.70
2023-02-25T08:40:33.449Z,2.60
2023-02-25T08:43:21.542Z,2.60
2023-02-25T08:46:11.314Z,2.60
2023-02-25T08:48:59.818Z,2.60
2023-02-25T08:51:50.694Z,2.60
2023-02-25T08:54:38.818Z,2.60
2023-02-25T08:57:27.201Z,2.50
2023-02-25T09:00:16.145Z,2.50
2023-02-25T09:03:05.748Z,2.50
2023-02-25T09:05:53.942Z,2.50
2023-02-25T09:08:42.070Z,2.40
2023-02-25T09:11:30.244Z,2.40
2023-02-25T09:14:18.764Z,2.50
2023-02-25T09:17:07.755Z,2.50
2023-02-25T09:19:58.395Z,2.50
2023-02-25T09:22:46.899Z,2.60
2023-02-25T09:25:35.102Z,2.60
2023-02-25T09:28:24.639Z,2.70
2023-02-25T09:31:13.693Z,2.80
2023-02-25T09:34:01.809Z,2.80
2023-02-25T09:36:51.265Z,2.90
2023-02-25T09:39:39.335Z,3.00
2023-02-25T09:42:31.441Z,3.00
2023-02-25T09:45:22.500Z,3.00
2023-02-25T09:48:17.203Z,3.10
2023-02-25T09:51:07.933Z,3.20
2023-02-25T09:54:03.090Z,3.30
2023-02-25T09:56:51.335Z,3.50
2023-02-25T09:59:39.832Z,3.60
2023-02-25T10:02:31.558Z,3.70
2023-02-25T10:05:24.105Z,3.80
2023-02-25T10:08:19.307Z,3.80
2023-02-25T10:11:11.337Z,3.90
2023-02-25T10:14:04.066Z,3.80
2023-02-25T10:16:55.202Z,3.80
2023-02-25T10:19:58.608Z,3.80
2023-02-25T10:22:50.723Z,3.80
2023-02-25T10:25:41.738Z,3.80
2023-02-25T10:28:32.314Z,3.90
2023-02-25T10:31:21.594Z,4.00
2023-02-25T10:34:19.446Z,4.00
2023-02-25T10:37:12.384Z,4.10
2023-02-25T10:40:03.456Z,4.00
2023-02-25T10:42:55.194Z,4.10
2023-02-25T10:45:46.699Z,4.20
2023-02-25T10:48:35.882Z,4.20
2023-02-25T10:51:25.812Z,4.10
2023-02-25T10:54:14.916Z,4.20
2023-02-25T10:57:08.382Z,4.20
2023-02-25T11:00:00.845Z,4.30
2023-02-25T11:02:50.882Z,4.30
2023-02-25T11:05:40.821Z,4.40
2023-02-25T11:08:30.137Z,4.50
2023-02-25T11:11:20.676Z,4.50
2023-02-25T11:14:14.799Z,4.50
2023-02-25T11:17:03.787Z,4.60
2023-02-25T11:19:59.331Z,4.60
2023-02-25T11:22:47.485Z,4.80
2023-02-25T11:25:37.988Z,4.90
2023-02-25T11:28:31.094Z,5.00
2023-02-25T11:31:20.794Z,5.10
2023-02-25T11:34:14.982Z,5.10
2023-02-25T11:37:19.046Z,5.10
2023-02-25T11:40:22.699Z,5.20
2023-02-25T11:43:18.616Z,5.20
2023-02-25T11:46:09.739Z,5.10
2023-02-25T11:49:01.400Z,5.00
2023-02-25T11:51:52.940Z,5.00
2023-02-25T11:54:45.703Z,4.90
2023-02-25T11:57:39.191Z,4.90
2023-02-25T12:00:29.898Z,5.00
2023-02-25T12:03:45.362Z,5.10
2023-02-25T12:06:39.709Z,4.90
2023-02-25T12:09:47.903Z,4.80
2023-02-25T12:13:05.947Z,4.70
2023-02-25T12:16:07.290Z,4.60
2023-02-25T12:19:13.006Z,4.60
2023-02-25T12:22:19.653Z,4.60
2023-02-25T12:25:16.039Z,4.60
2023-02-25T12:28:21.908Z,4.50
2023-02-25T12:31:21.096Z,4.80
2023-02-25T12:34:15.618Z,5.00
2023-02-25T12:37:11.094Z,5.10
2023-02-25T12:40:10.664Z,5.20
2023-02-25T12:43:05.309Z,4.60
2023-02-25T12:45:59.054Z,4.10
2023-02-25T12:49:00.216Z,3.70
2023-02-25T12:51:54.707Z,3.40
2023-02-25T12:54:56.180Z,3.20
2023-02-25T12:57:49.867Z,3.10
2023-02-25T13:00:46.692Z,3.00
2023-02-25T13:03:41.035Z,2.80
2023-02-25T13:06:48.455Z,2.80
2023-02-25T13:09:42.249Z,2.80
2023-02-25T13:12:41.804Z,2.80
2023-02-25T13:15:33.924Z,2.90
2023-02-25T13:18:26.459Z,3.30
2023-02-25T13:21:18.109Z,4.50
2023-02-25T13:24:21.292Z,5.50
2023-02-25T13:27:21.451Z,6.00
2023-02-25T13:30:18.486Z,6.40
2023-02-25T13:33:13.660Z,6.30
2023-02-25T13:36:09.735Z,6.20
2023-02-25T13:39:08.671Z,6.10
2023-02-25T13:42:10.378Z,6.00
2023-02-25T13:45:16.524Z,7.00
2023-02-25T13:48:17.238Z,7.90
2023-02-25T13:51:30.303Z,8.00
2023-02-25T13:54:28.255Z,7.60
2023-02-25T13:57:25.424Z,8.20
2023-02-25T14:00:28.394Z,7.50
2023-02-25T14:03:24.754Z,6.60
2023-02-25T14:06:19.023Z,6.00
2023-02-25T14:09:19.962Z,5.60
2023-02-25T14:12:13.368Z,5.40
2023-02-25T14:15:11.242Z,5.40
2023-02-25T14:18:09.132Z,5.30
2023-02-25T14:21:04.498Z,5.20
2023-02-25T14:23:57.895Z,5.00
2023-02-25T14:26:52.289Z,4.70
2023-02-25T14:29:48.537Z,4.50
2023-02-25T14:32:44.982Z,4.40
2023-02-25T14:35:45.310Z,4.20
2023-02-25T14:38:40.087Z,4.20
2023-02-25T14:41:31.328Z,4.20
2023-02-25T14:44:21.335Z,4.30
2023-02-25T14:47:11.864Z,4.20
2023-02-25T14:50:02.360Z,4.20
2023-02-25T14:53:12.795Z,4.20
2023-02-25T14:56:19.282Z,4.30
2023-02-25T14:59:29.396Z,4.20
2023-02-25T15:02:23.989Z,4.10
2023-02-25T15:05:26.795Z,4.20
2023-02-25T15:08:26.541Z,4.20
2023-02-25T15:11:28.110Z,4.20
2023-02-25T15:14:32.277Z,4.10
2023-02-25T15:17:31.468Z,4.00
2023-02-25T15:20:34.234Z,3.90
2023-02-25T15:23:23.623Z,3.80
2023-02-25T15:26:30.006Z,3.80
2023-02-25T15:29:22.544Z,3.70
2023-02-25T15:32:16.758Z,3.70
2023-02-25T15:35:06.761Z,3.70
2023-02-25T15:38:07.232Z,4.00
2023-02-25T15:40:56.125Z,4.40
2023-02-25T15:43:44.849Z,4.70
2023-02-25T15:46:43.138Z,4.60
2023-02-25T15:49:34.187Z,4.30
2023-02-25T15:52:40.634Z,4.00
2023-02-25T15:55:50.271Z,3.70
2023-02-25T15:58:43.009Z,3.50
2023-02-25T16:01:39.706Z,3.40
2023-02-25T16:04:48.770Z,3.30
2023-02-25T16:07:38.218Z,3.30
2023-02-25T16:10:28.880Z,3.30
2023-02-25T16:13:17.914Z,3.20
2023-02-25T16:16:07.370Z,3.20
2023-02-25T16:18:57.887Z,3.10
2023-02-25T16:21:49.816Z,3.10
2023-02-25T16:24:38.278Z,3.10
2023-02-25T16:27:33.395Z,3.00
2023-02-25T16:30:24.777Z,3.00
2023-02-25T16:33:17.068Z,3.00
2023-02-25T16:36:09.813Z,3.00
2023-02-25T16:39:01.536Z,3.00
2023-02-25T16:41:51.977Z,3.00
2023-02-25T16:44:40.925Z,2.90
2023-02-25T16:47:30.512Z,3.00
2023-02-25T16:50:23.426Z,2.90
2023-02-25T16:53:13.294Z,2.90
2023-02-25T16:56:02.846Z,2.90
2023-02-25T16:59:02.757Z,2.90
2023-02-25T17:01:58.260Z,2.90
2023-02-25T17:04:47.716Z,2.80
2023-02-25T17:07:36.674Z,2.90
2023-02-25T17:10:26.557Z,2.80
2023-02-25T17:13:18.483Z,2.80
2023-02-25T17:16:07.164Z,2.70
2023-02-25T17:18:56.633Z,2.60
2023-02-25T17:21:47.284Z,2.60
2023-02-25T17:24:35.395Z,2.50
2023-02-25T17:27:24.418Z,2.50
2023-02-25T17:30:28.909Z,2.50
2023-02-25T17:33:26.555Z,2.50
2023-02-25T17:36:16.533Z,2.40
2023-02-25T17:39:05.807Z,2.40
2023-02-25T17:41:55.361Z,2.40
2023-02-25T17:44:53.649Z,2.40
2023-02-25T17:47:44.585Z,2.30
2023-02-25T17:50:34.320Z,2.30
2023-02-25T17:53:30.467Z,2.20
2023-02-25T17:56:22.687Z,2.20
2023-02-25T17:59:31.343Z,2.20
2023-02-25T18:02:36.850Z,2.20
2023-02-25T18:05:26.070Z,2.20
2023-02-25T18:08:20.372Z,2.10
2023-02-25T18:11:21.821Z,2.10
2023-02-25T18:14:24.587Z,2.10
2023-02-25T18:17:14.610Z,2.00
2023-02-25T18:20:05.087Z,2.00
2023-02-25T18:22:53.535Z,2.00
2023-02-25T18:25:44.037Z,2.00
2023-02-25T18:28:32.140Z,1.90
2023-02-25T18:31:20.860Z,1.90
2023-02-25T18:34:09.096Z,1.80
2023-02-25T18:36:57.241Z,1.80
2023-02-25T18:39:45.911Z,1.90
2023-02-25T18:42:35.352Z,1.90
2023-02-25T18:45:24.940Z,1.90
2023-02-25T18:48:13.487Z,1.90
2023-02-25T18:51:02.340Z,1.90
2023-02-25T18:53:50.518Z,1.80
2023-02-25T18:56:38.591Z,1.70
2023-02-25T18:59:28.027Z,1.70
2023-02-25T19:02:27.586Z,1.70
2023-02-25T19:05:15.851Z,1.70
2023-02-25T19:08:03.994Z,1.60
2023-02-25T19:10:52.977Z,1.50
2023-02-25T19:13:42.684Z,1.50
2023-02-25T19:16:32.591Z,1.50
2023-02-25T19:19:22.619Z,1.50
2023-02-25T19:22:11.712Z,1.50
2023-02-25T19:25:00.216Z,1.50
2023-02-25T19:27:48.316Z,1.50
2023-02-25T19:30:38.030Z,1.50
2023-02-25T19:33:27.512Z,1.50
2023-02-25T19:36:15.586Z,1.50
2023-02-25T19:39:05.402Z,1.60
2023-02-25T19:41:53.586Z,1.50
2023-02-25T19:44:41.766Z,1.50
2023-02-25T19:47:29.895Z,1.50
2023-02-25T19:50:20.461Z,1.50
2023-02-25T19:53:08.596Z,1.50
2023-02-25T19:55:57.375Z,1.50
2023-02-25T19:58:45.416Z,1.50
2023-02-25T20:01:33.577Z,1.40
2023-02-25T20:04:22.614Z,1.50
2023-02-25T20:07:12.083Z,1.40
2023-02-25T20:10:00.373Z,1.40
2023-02-25T20:12:49.094Z,1.50
2023-02-25T20:15:37.187Z,1.50
2023-02-25T20:18:25.306Z,1.50
2023-02-25T20:21:13.399Z,1.60
2023-02-25T20:24:02.876Z,1.50
2023-02-25T20:26:50.955Z,1.50
2023-02-25T20:29:39.090Z,1.50
2023-02-25T20:32:27.186Z,1.60
2023-02-25T20:35:16.973Z,1.60
2023-02-25T20:38:16.676Z,1.50
2023-02-25T20:41:06.884Z,1.50
2023-02-25T20:43:55.109Z,1.50
2023-02-25T20:46:43.693Z,1.50
2023-02-25T20:49:32.834Z,1.40
2023-02-25T20:52:21.495Z,1.40
2023-02-25T20:55:10.487Z,1.40
2023-02-25T20:57:59.923Z,1.30
2023-02-25T21:00:48.034Z,1.30
2023-02-25T21:03:36.154Z,1.30
2023-02-25T21:06:25.587Z,1.30
2023-02-25T21:09:13.874Z,1.20
2023-02-25T21:12:01.992Z,1.20
2023-02-25T21:14:52.260Z,1.20
2023-02-25T21:17:40.378Z,1.20
2023-02-25T21:20:28.755Z,1.20
2023-02-25T21:23:16.960Z,1.20
2023-02-25T21:26:05.785Z,1.20
2023-02-25T21:28:53.847Z,1.20
2023-02-25T21:31:43.343Z,1.30
2023-02-25T21:34:31.546Z,1.30
2023-02-25T21:37:19.627Z,1.30
2023-02-25T21:40:08.046Z,1.40
2023-02-25T21:42:56.458Z,1.40
2023-02-25T21:45:53.393Z,1.40
2023-02-25T21:48:43.988Z,1.40
2023-02-25T21:51:32.100Z,1.50
2023-02-25T21:54:20.182Z,1.40
2023-02-25T21:57:08.287Z,1.40
2023-02-25T21:59:57.083Z,1.40
2023-02-25T22:02:45.238Z,1.40
2023-02-25T22:05:34.785Z,1.30
2023-02-25T22:08:22.885Z,1.30
2023-02-25T22:11:14.227Z,1.30
2023-02-25T22:14:03.372Z,1.30
2023-02-25T22:16:51.444Z,1.20
2023-02-25T22:19:39.522Z,1.20
2023-02-25T22:22:28.968Z,1.20
2023-02-25T22:25:17.218Z,1.10
2023-02-25T22:28:05.499Z,1.10
2023-02-25T22:30:54.035Z,1.00
2023-02-25T22:33:42.320Z,0.90
2023-02-25T22:36:30.408Z,0.90
2023-02-25T22:39:19.878Z,0.90
2023-02-25T22:42:07.991Z,0.90
2023-02-25T22:44:56.044Z,0.80
2023-02-25T22:47:44.119Z,0.90
2023-02-25T22:50:32.180Z,0.80
2023-02-25T22:53:20.270Z,0.80
2023-02-25T22:56:12.679Z,0.80
2023-02-25T22:59:01.180Z,0.80
2023-02-25T23:01:49.274Z,0.90
2023-02-25T23:04:37.464Z,0.80
2023-02-25T23:07:25.802Z,0.80
2023-02-25T23:10:14.806Z,0.70
2023-02-25T23:13:07.922Z,0.70
2023-02-25T23:16:01.865Z,0.70
2023-02-25T23:18:50.333Z,0.70
2023-02-25T23:21:39.177Z,0.60
2023-02-25T23:24:27.239Z,0.60
2023-02-25T23:27:15.367Z,0.60
2023-02-25T23:30:05.072Z,0.60
2023-02-25T23:32:53.298Z,0.60
2023-02-25T23:35:43.282Z,0.50
2023-02-25T23:38:31.378Z,0.50
2023-02-25T23:41:19.467Z,0.60
2023-02-25T23:44:08.492Z,0.50
2023-02-25T23:46:58.028Z,0.50
2023-02-25T23:49:46.201Z,0.50
2023-02-25T23:52:34.556Z,0.50
2023-02-25T23:55:23.187Z,0.50
2023-02-25T23:58:11.259Z,0.50
